sensor_id;sensor_type;location;lat;lon;timestamp;pressure;altitude;pressure_sealevel;temperature;humidity
64243;BME280;50573;51.512;5.386;2023-04-08T00:01:51;101958.03;;;8.78;100.00
64243;BME280;50573;51.512;5.386;2023-04-08T00:11:54;101957.66;;;8.76;100.00
64243;BME280;50573;51.512;5.386;2023-04-08T00:21:59;101954.53;;;8.85;100.00
64243;BME280;50573;51.512;5.386;2023-04-08T00:32:02;101955.69;;;8.91;100.00
64243;BME280;50573;51.512;5.386;2023-04-08T00:42:07;101951.38;;;8.97;100.00
64243;BME280;50573;51.512;5.386;2023-04-08T00:52:10;101959.91;;;8.99;100.00
64243;BME280;50573;51.512;5.386;2023-04-08T01:02:20;101965.75;;;8.97;100.00
64243;BME280;50573;51.512;5.386;2023-04-08T01:12:29;101964.56;;;8.98;100.00
64243;BME280;50573;51.512;5.386;2023-04-08T01:22:42;101961.50;;;8.93;100.00
64243;BME280;50573;51.512;5.386;2023-04-08T01:32:52;101973.13;;;8.97;100.00
64243;BME280;50573;51.512;5.386;2023-04-08T01:42:59;101983.97;;;9.04;100.00
64243;BME280;50573;51.512;5.386;2023-04-08T01:53:08;101978.94;;;9.02;100.00
64243;BME280;50573;51.512;5.386;2023-04-08T02:03:13;101983.59;;;9.02;100.00
64243;BME280;50573;51.512;5.386;2023-04-08T02:13:21;101975.88;;;8.90;100.00
64243;BME280;50573;51.512;5.386;2023-04-08T02:23:26;101977.03;;;8.89;100.00
64243;BME280;50573;51.512;5.386;2023-04-08T02:33:33;101990.59;;;8.89;100.00
64243;BME280;50573;51.512;5.386;2023-04-08T02:43:37;101991.00;;;8.84;100.00
64243;BME280;50573;51.512;5.386;2023-04-08T02:53:41;102001.47;;;8.85;100.00
64243;BME280;50573;51.512;5.386;2023-04-08T03:03:45;102004.59;;;8.84;100.00
64243;BME280;50573;51.512;5.386;2023-04-08T03:13:50;102007.31;;;8.84;100.00
64243;BME280;50573;51.512;5.386;2023-04-08T03:23:52;101999.53;;;8.79;100.00
64243;BME280;50573;51.512;5.386;2023-04-08T03:33:57;101999.53;;;8.79;100.00
64243;BME280;50573;51.512;5.386;2023-04-08T03:44:00;102001.91;;;8.77;100.00
64243;BME280;50573;51.512;5.386;2023-04-08T03:54:04;102011.97;;;8.73;100.00
64243;BME280;50573;51.512;5.386;2023-04-08T04:04:08;102014.69;;;8.83;100.00
64243;BME280;50573;51.512;5.386;2023-04-08T04:14:13;102006.94;;;8.75;100.00
64243;BME280;50573;51.512;5.386;2023-04-08T04:24:16;102025.19;;;8.85;100.00
64243;BME280;50573;51.512;5.386;2023-04-08T04:34:20;102032.53;;;8.84;100.00
64243;BME280;50573;51.512;5.386;2023-04-08T04:44:23;102039.13;;;8.90;100.00
64243;BME280;50573;51.512;5.386;2023-04-08T04:54:28;102052.72;;;8.94;100.00
64243;BME280;50573;51.512;5.386;2023-04-08T05:04:31;102060.09;;;8.83;100.00
64243;BME280;50573;51.512;5.386;2023-04-08T05:14:35;102065.16;;;8.74;100.00
64243;BME280;50573;51.512;5.386;2023-04-08T05:24:38;102071.34;;;8.78;100.00
64243;BME280;50573;51.512;5.386;2023-04-08T05:34:43;102078.72;;;8.81;100.00
64243;BME280;50573;51.512;5.386;2023-04-08T05:44:46;102087.28;;;8.79;100.00
64243;BME280;50573;51.512;5.386;2023-04-08T05:54:50;102089.22;;;8.75;100.00
64243;BME280;50573;51.512;5.386;2023-04-08T06:04:53;102101.25;;;8.88;100.00
64243;BME280;50573;51.512;5.386;2023-04-08T06:14:58;102109.78;;;9.01;100.00
64243;BME280;50573;51.512;5.386;2023-04-08T06:25:01;102123.38;;;9.22;100.00
64243;BME280;50573;51.512;5.386;2023-04-08T06:35:07;102143.53;;;9.28;100.00
64243;BME280;50573;51.512;5.386;2023-04-08T06:45:10;102149.34;;;9.51;100.00
64243;BME280;50573;51.512;5.386;2023-04-08T06:55:15;102157.47;;;9.61;100.00
64243;BME280;50573;51.512;5.386;2023-04-08T07:05:18;102176.50;;;9.65;100.00
64243;BME280;50573;51.512;5.386;2023-04-08T07:15:22;102180.34;;;9.89;100.00
64243;BME280;50573;51.512;5.386;2023-04-08T07:25:26;102192.00;;;9.93;100.00
64243;BME280;50573;51.512;5.386;2023-04-08T07:35:30;102208.31;;;10.07;100.00
64243;BME280;50573;51.512;5.386;2023-04-08T07:45:33;102209.09;;;10.00;100.00
64243;BME280;50573;51.512;5.386;2023-04-08T07:55:38;102205.94;;;10.23;100.00
64243;BME280;50573;51.512;5.386;2023-04-08T08:05:43;102223.91;;;9.78;100.00
64243;BME280;50573;51.512;5.386;2023-04-08T08:15:51;102241.69;;;10.28;100.00
64243;BME280;50573;51.512;5.386;2023-04-08T08:25:58;102247.22;;;10.00;100.00
64243;BME280;50573;51.512;5.386;2023-04-08T08:36:03;102250.19;;;10.48;100.00
64243;BME280;50573;51.512;5.386;2023-04-08T08:46:09;102254.03;;;10.54;100.00
64243;BME280;50573;51.512;5.386;2023-04-08T08:56:14;102268.31;;;10.86;96.56
64243;BME280;50573;51.512;5.386;2023-04-08T09:06:19;102274.72;;;11.16;96.45
64243;BME280;50573;51.512;5.386;2023-04-08T09:16:24;102287.84;;;11.36;95.24
64243;BME280;50573;51.512;5.386;2023-04-08T09:26:27;102285.38;;;10.93;98.28
64243;BME280;50573;51.512;5.386;2023-04-08T09:36:31;102294.56;;;10.48;100.00
64243;BME280;50573;51.512;5.386;2023-04-08T09:46:39;102296.28;;;10.93;99.14
64243;BME280;50573;51.512;5.386;2023-04-08T09:56:50;102315.41;;;10.86;96.75
64243;BME280;50573;51.512;5.386;2023-04-08T10:07:03;102311.81;;;11.03;99.35
64243;BME280;50573;51.512;5.386;2023-04-08T10:17:26;102328.91;;;11.73;91.93
64243;BME280;50573;51.512;5.386;2023-04-08T10:27:38;102313.38;;;11.66;92.57
64243;BME280;50573;51.512;5.386;2023-04-08T10:37:43;102308.66;;;11.70;91.09
64243;BME280;50573;51.512;5.386;2023-04-08T10:47:46;102308.28;;;12.46;89.49
64243;BME280;50573;51.512;5.386;2023-04-08T10:57:51;102294.88;;;12.89;90.30
64243;BME280;50573;51.512;5.386;2023-04-08T11:07:59;102299.13;;;13.20;82.12
64243;BME280;50573;51.512;5.386;2023-04-08T11:18:04;102300.41;;;12.82;82.15
64243;BME280;50573;51.512;5.386;2023-04-08T11:28:08;102285.16;;;12.54;86.99
64243;BME280;50573;51.512;5.386;2023-04-08T11:38:12;102280.22;;;12.72;85.67
64243;BME280;50573;51.512;5.386;2023-04-08T11:48:16;102287.78;;;12.91;83.17
64243;BME280;50573;51.512;5.386;2023-04-08T11:58:20;102287.41;;;13.19;76.42
64243;BME280;50573;51.512;5.386;2023-04-08T12:08:23;102293.50;;;13.30;76.64
64243;BME280;50573;51.512;5.386;2023-04-08T12:18:28;102281.06;;;13.26;74.78
64243;BME280;50573;51.512;5.386;2023-04-08T12:28:31;102280.06;;;13.62;74.69
64243;BME280;50573;51.512;5.386;2023-04-08T12:38:36;102277.84;;;13.77;70.01
64243;BME280;50573;51.512;5.386;2023-04-08T12:48:39;102279.53;;;13.71;66.98
64243;BME280;50573;51.512;5.386;2023-04-08T12:58:44;102271.94;;;14.02;64.76
64243;BME280;50573;51.512;5.386;2023-04-08T13:08:47;102264.09;;;14.23;64.51
64243;BME280;50573;51.512;5.386;2023-04-08T13:18:52;102256.56;;;14.66;57.70
64243;BME280;50573;51.512;5.386;2023-04-08T13:28:55;102258.47;;;15.53;57.74
64243;BME280;50573;51.512;5.386;2023-04-08T13:39:00;102251.34;;;16.00;58.15
64243;BME280;50573;51.512;5.386;2023-04-08T13:49:03;102254.00;;;15.59;57.05
64243;BME280;50573;51.512;5.386;2023-04-08T13:59:09;102253.25;;;15.43;57.38
64243;BME280;50573;51.512;5.386;2023-04-08T14:09:23;102241.81;;;15.28;59.87
64243;BME280;50573;51.512;5.386;2023-04-08T14:19:30;102235.38;;;15.02;60.32
64243;BME280;50573;51.512;5.386;2023-04-08T14:29:41;102231.25;;;15.10;60.42
64243;BME280;50573;51.512;5.386;2023-04-08T14:39:46;102230.47;;;14.94;61.08
64243;BME280;50573;51.512;5.386;2023-04-08T14:49:56;102227.06;;;15.22;52.18
64243;BME280;50573;51.512;5.386;2023-04-08T15:00:02;102228.94;;;15.57;52.87
64243;BME280;50573;51.512;5.386;2023-04-08T15:10:09;102226.81;;;16.34;52.24
64243;BME280;50573;51.512;5.386;2023-04-08T15:20:17;102222.13;;;17.23;49.75
64243;BME280;50573;51.512;5.386;2023-04-08T15:30:24;102220.28;;;18.31;46.06
64243;BME280;50573;51.512;5.386;2023-04-08T15:40:37;102212.84;;;16.41;50.92
64243;BME280;50573;51.512;5.386;2023-04-08T15:50:49;102210.44;;;16.02;52.26
64243;BME280;50573;51.512;5.386;2023-04-08T16:00:54;102216.41;;;15.40;55.17
64243;BME280;50573;51.512;5.386;2023-04-08T16:10:59;102218.19;;;14.82;57.04
64243;BME280;50573;51.512;5.386;2023-04-08T16:21:05;102214.97;;;14.52;57.50
64243;BME280;50573;51.512;5.386;2023-04-08T16:31:09;102217.22;;;14.37;57.06
64243;BME280;50573;51.512;5.386;2023-04-08T16:41:15;102219.09;;;14.01;57.78
64243;BME280;50573;51.512;5.386;2023-04-08T16:51:30;102229.47;;;13.70;58.79
64243;BME280;50573;51.512;5.386;2023-04-08T17:01:35;102229.84;;;13.49;59.43
64243;BME280;50573;51.512;5.386;2023-04-08T17:11:49;102233.94;;;13.38;60.35
64243;BME280;50573;51.512;5.386;2023-04-08T17:21:57;102238.75;;;13.30;59.62
64243;BME280;50573;51.512;5.386;2023-04-08T17:32:06;102238.31;;;12.82;61.17
64243;BME280;50573;51.512;5.386;2023-04-08T17:42:11;102232.38;;;12.57;63.96
64243;BME280;50573;51.512;5.386;2023-04-08T17:52:19;102224.97;;;12.24;66.16
64243;BME280;50573;51.512;5.386;2023-04-08T18:02:30;102228.94;;;11.86;68.45
64243;BME280;50573;51.512;5.386;2023-04-08T18:12:43;102234.63;;;11.58;73.23
64243;BME280;50573;51.512;5.386;2023-04-08T18:22:48;102230.94;;;11.38;77.96
64243;BME280;50573;51.512;5.386;2023-04-08T18:32:51;102245.84;;;11.23;81.01
64243;BME280;50573;51.512;5.386;2023-04-08T18:42:55;102249.09;;;11.07;82.97
64243;BME280;50573;51.512;5.386;2023-04-08T18:53:02;102263.59;;;10.86;84.70
64243;BME280;50573;51.512;5.386;2023-04-08T19:03:07;102278.13;;;10.62;86.51
64243;BME280;50573;51.512;5.386;2023-04-08T19:13:11;102266.19;;;10.28;85.33
64243;BME280;50573;51.512;5.386;2023-04-08T19:23:15;102269.00;;;10.00;86.58
64243;BME280;50573;51.512;5.386;2023-04-08T19:33:19;102281.06;;;9.74;88.66
64243;BME280;50573;51.512;5.386;2023-04-08T19:43:23;102290.81;;;9.58;89.35
64243;BME280;50573;51.512;5.386;2023-04-08T19:53:26;102284.19;;;9.52;94.44
64243;BME280;50573;51.512;5.386;2023-04-08T20:03:31;102277.59;;;9.49;96.21
64243;BME280;50573;51.512;5.386;2023-04-08T20:13:34;102284.59;;;9.61;95.66
64243;BME280;50573;51.512;5.386;2023-04-08T20:23:39;102298.94;;;9.82;94.42
64243;BME280;50573;51.512;5.386;2023-04-08T20:33:45;102289.97;;;10.03;93.67
64243;BME280;50573;51.512;5.386;2023-04-08T20:43:50;102290.31;;;10.26;92.77
64243;BME280;50573;51.512;5.386;2023-04-08T20:53:53;102290.31;;;10.40;92.60
64243;BME280;50573;51.512;5.386;2023-04-08T21:03:59;102284.47;;;10.35;93.15
64243;BME280;50573;51.512;5.386;2023-04-08T21:14:02;102289.13;;;10.45;93.37
64243;BME280;50573;51.512;5.386;2023-04-08T21:24:06;102291.38;;;10.60;93.14
64243;BME280;50573;51.512;5.386;2023-04-08T21:34:10;102297.59;;;10.64;93.83
64243;BME280;50573;51.512;5.386;2023-04-08T21:44:15;102306.91;;;10.70;94.46
64243;BME280;50573;51.512;5.386;2023-04-08T21:54:18;102299.50;;;10.78;94.79
64243;BME280;50573;51.512;5.386;2023-04-08T22:04:22;102296.78;;;10.74;93.95
64243;BME280;50573;51.512;5.386;2023-04-08T22:14:25;102300.66;;;10.73;93.42
64243;BME280;50573;51.512;5.386;2023-04-08T22:24:30;102301.47;;;10.67;93.88
64243;BME280;50573;51.512;5.386;2023-04-08T22:34:33;102301.84;;;10.69;94.15
64243;BME280;50573;51.512;5.386;2023-04-08T22:44:38;102300.72;;;10.63;94.32
64243;BME280;50573;51.512;5.386;2023-04-08T22:54:41;102292.16;;;10.64;94.71
64243;BME280;50573;51.512;5.386;2023-04-08T23:04:46;102292.97;;;10.54;93.39
64243;BME280;50573;51.512;5.386;2023-04-08T23:14:49;102298.41;;;10.54;92.73
64243;BME280;50573;51.512;5.386;2023-04-08T23:24:53;102292.16;;;10.61;93.59
64243;BME280;50573;51.512;5.386;2023-04-08T23:34:56;102291.44;;;10.53;92.97
64243;BME280;50573;51.512;5.386;2023-04-08T23:45:00;102284.00;;;10.57;92.02
64243;BME280;50573;51.512;5.386;2023-04-08T23:55:04;102278.13;;;10.62;92.08
